createdAt,value
2023-03-17T00:01:57.118Z,3.27
2023-03-17T00:04:26.718Z,3.90
2023-03-17T00:06:55.792Z,3.30
2023-03-17T00:09:24.171Z,3.53
2023-03-17T00:11:52.546Z,5.40
2023-03-17T00:14:22.995Z,3.63
2023-03-17T00:16:52.826Z,2.97
2023-03-17T00:19:29.927Z,3.70
2023-03-17T00:21:59.304Z,3.07
2023-03-17T00:24:27.726Z,3.47
2023-03-17T00:26:56.343Z,2.77
2023-03-17T00:29:27.042Z,3.10
2023-03-17T00:31:59.063Z,2.70
2023-03-17T00:34:28.403Z,2.80
2023-03-17T00:36:57.158Z,4.17
2023-03-17T00:39:25.582Z,3.53
2023-03-17T00:41:54.228Z,2.97
2023-03-17T00:44:22.600Z,2.73
2023-03-17T00:46:52.700Z,2.17
2023-03-17T00:49:24.108Z,2.10
2023-03-17T00:51:53.183Z,2.07
2023-03-17T00:54:22.191Z,2.77
2023-03-17T00:56:52.411Z,4.23
2023-03-17T00:59:26.192Z,2.27
2023-03-17T01:01:56.611Z,2.83
2023-03-17T01:04:25.695Z,2.23
2023-03-17T01:06:54.555Z,4.03
2023-03-17T01:09:27.006Z,2.63
2023-03-17T01:11:56.237Z,2.77
2023-03-17T01:14:24.915Z,3.00
2023-03-17T01:16:55.493Z,2.60
2023-03-17T01:19:23.984Z,2.90
2023-03-17T01:21:52.550Z,2.10
2023-03-17T01:24:21.134Z,2.30
2023-03-17T01:26:49.621Z,3.40
2023-03-17T01:29:18.536Z,2.03
2023-03-17T01:31:47.982Z,2.70
2023-03-17T01:34:17.958Z,2.90
2023-03-17T01:36:46.895Z,1.83
2023-03-17T01:39:15.445Z,1.67
2023-03-17T01:41:45.821Z,2.10
2023-03-17T01:44:17.483Z,2.60
2023-03-17T01:46:47.705Z,2.37
2023-03-17T01:49:23.949Z,1.87
2023-03-17T01:52:03.025Z,1.40
2023-03-17T01:54:36.942Z,1.73
2023-03-17T01:57:11.750Z,1.90
2023-03-17T01:59:45.571Z,1.97
2023-03-17T02:02:19.813Z,3.90
2023-03-17T02:04:50.513Z,3.87
2023-03-17T02:07:20.532Z,2.90
2023-03-17T02:09:49.218Z,3.27
2023-03-17T02:12:17.551Z,3.43
2023-03-17T02:14:46.872Z,1.60
2023-03-17T02:17:15.242Z,1.73
2023-03-17T02:19:43.540Z,1.87
2023-03-17T02:22:13.575Z,1.93
2023-03-17T02:24:46.106Z,1.70
2023-03-17T02:27:17.675Z,1.50
2023-03-17T02:29:47.073Z,1.80
2023-03-17T02:32:17.768Z,1.70
2023-03-17T02:34:46.488Z,1.60
2023-03-17T02:37:16.596Z,1.63
2023-03-17T02:39:45.055Z,1.70
2023-03-17T02:42:14.064Z,1.50
2023-03-17T02:44:42.404Z,1.67
2023-03-17T02:47:10.914Z,2.03
2023-03-17T02:49:41.348Z,2.23
2023-03-17T02:52:10.030Z,1.50
2023-03-17T02:54:40.409Z,1.50
2023-03-17T02:57:08.890Z,1.50
2023-03-17T02:59:37.566Z,1.77
2023-03-17T03:02:06.054Z,1.27
2023-03-17T03:04:34.928Z,1.60
2023-03-17T03:07:04.124Z,1.40
2023-03-17T03:09:32.547Z,1.43
2023-03-17T03:12:02.314Z,1.67
2023-03-17T03:14:30.749Z,1.90
2023-03-17T03:16:59.664Z,1.77
2023-03-17T03:19:28.404Z,1.40
2023-03-17T03:21:56.900Z,1.87
2023-03-17T03:24:26.165Z,1.93
2023-03-17T03:26:54.668Z,1.60
2023-03-17T03:29:24.518Z,1.53
2023-03-17T03:31:52.882Z,1.67
2023-03-17T03:34:21.322Z,2.03
2023-03-17T03:36:49.813Z,1.60
2023-03-17T03:39:18.228Z,1.93
2023-03-17T03:41:46.615Z,2.40
2023-03-17T03:44:15.060Z,2.10
2023-03-17T03:46:44.860Z,2.13
2023-03-17T03:49:13.287Z,2.60
2023-03-17T03:51:41.729Z,2.63
2023-03-17T03:54:10.088Z,2.73
2023-03-17T03:56:38.599Z,2.33
2023-03-17T03:59:07.362Z,2.13
2023-03-17T04:01:35.683Z,4.90
2023-03-17T04:04:05.843Z,2.50
2023-03-17T04:06:34.198Z,2.40
2023-03-17T04:09:02.564Z,2.77
2023-03-17T04:11:31.154Z,2.57
2023-03-17T04:13:59.501Z,2.40
2023-03-17T04:16:28.346Z,2.23
2023-03-17T04:18:56.768Z,3.00
2023-03-17T04:21:26.794Z,2.40
2023-03-17T04:23:55.062Z,2.07
2023-03-17T04:26:24.440Z,2.53
2023-03-17T04:28:52.733Z,2.67
2023-03-17T04:31:21.189Z,3.33
2023-03-17T04:33:49.561Z,2.63
2023-03-17T04:36:20.604Z,3.57
2023-03-17T04:38:50.835Z,3.50
2023-03-17T04:41:19.345Z,2.70
2023-03-17T04:43:47.822Z,2.53
2023-03-17T04:46:16.442Z,1.93
2023-03-17T04:48:44.863Z,2.33
2023-03-17T04:51:13.295Z,2.40
2023-03-17T04:53:41.753Z,3.30
2023-03-17T04:56:11.770Z,2.10
2023-03-17T04:58:40.994Z,3.63
2023-03-17T05:01:09.409Z,2.90
2023-03-17T05:03:37.986Z,2.90
2023-03-17T05:06:07.328Z,2.10
2023-03-17T05:08:35.989Z,3.80
2023-03-17T05:11:04.354Z,2.00
2023-03-17T05:13:34.261Z,1.90
2023-03-17T05:16:02.565Z,3.40
2023-03-17T05:18:31.112Z,2.00
2023-03-17T05:20:59.563Z,2.37
2023-03-17T05:23:28.231Z,2.50
2023-03-17T05:25:56.972Z,2.50
2023-03-17T05:28:25.368Z,2.20
2023-03-17T05:30:55.590Z,2.67
2023-03-17T05:33:24.372Z,2.33
2023-03-17T05:35:53.788Z,2.30
2023-03-17T05:38:22.301Z,2.53
2023-03-17T05:40:52.702Z,3.97
2023-03-17T05:43:21.112Z,3.10
2023-03-17T05:45:50.777Z,2.50
2023-03-17T05:48:21.213Z,3.07
2023-03-17T05:50:49.680Z,5.07
2023-03-17T05:53:18.790Z,3.33
2023-03-17T05:55:47.142Z,3.33
2023-03-17T05:58:17.160Z,3.03
2023-03-17T06:00:46.368Z,2.60
2023-03-17T06:03:14.932Z,2.90
2023-03-17T06:05:44.946Z,2.10
2023-03-17T06:08:14.014Z,2.23
2023-03-17T06:10:44.486Z,11.23
2023-03-17T06:13:13.040Z,22.17
2023-03-17T06:15:42.399Z,25.67
2023-03-17T06:18:10.932Z,26.40
2023-03-17T06:20:39.308Z,22.50
2023-03-17T06:23:09.113Z,23.00
2023-03-17T06:25:37.710Z,25.30
2023-03-17T06:28:06.950Z,24.70
2023-03-17T06:30:38.748Z,24.00
2023-03-17T06:33:08.616Z,25.33
2023-03-17T06:35:37.308Z,24.70
2023-03-17T06:38:05.901Z,24.20
2023-03-17T06:40:35.634Z,24.60
2023-03-17T06:43:04.397Z,28.23
2023-03-17T06:45:33.988Z,26.30
2023-03-17T06:48:05.315Z,25.00
2023-03-17T06:50:33.919Z,19.80
2023-03-17T06:53:03.071Z,15.47
2023-03-17T06:55:32.145Z,13.50
2023-03-17T06:58:03.142Z,12.43
2023-03-17T07:00:33.118Z,10.63
2023-03-17T07:03:01.499Z,17.60
2023-03-17T07:05:30.225Z,14.07
2023-03-17T07:07:58.896Z,12.67
2023-03-17T07:10:27.305Z,19.80
2023-03-17T07:12:55.960Z,16.47
2023-03-17T07:15:25.905Z,20.30
2023-03-17T07:17:54.438Z,15.23
2023-03-17T07:20:23.002Z,24.30
2023-03-17T07:22:51.630Z,20.00
2023-03-17T07:25:20.491Z,10.77
2023-03-17T07:27:48.986Z,7.43
2023-03-17T07:30:19.368Z,6.67
2023-03-17T07:32:50.345Z,4.40
2023-03-17T07:35:19.708Z,3.40
2023-03-17T07:37:48.911Z,4.20
2023-03-17T07:40:18.588Z,2.57
2023-03-17T07:42:46.970Z,3.90
2023-03-17T07:45:15.569Z,4.57
2023-03-17T07:47:43.921Z,5.67
2023-03-17T07:50:14.195Z,6.73
2023-03-17T07:52:42.574Z,5.70
2023-03-17T07:55:12.732Z,4.67
2023-03-17T07:57:41.506Z,5.57
2023-03-17T08:00:13.873Z,5.73
2023-03-17T08:02:42.345Z,4.17
2023-03-17T08:05:11.579Z,3.87
2023-03-17T08:07:41.716Z,4.20
2023-03-17T08:10:11.760Z,4.30
2023-03-17T08:12:40.332Z,4.80
2023-03-17T08:15:09.506Z,6.73
2023-03-17T08:17:38.043Z,4.47
2023-03-17T08:20:07.508Z,4.33
2023-03-17T08:22:35.878Z,5.67
2023-03-17T08:25:06.177Z,7.07
2023-03-17T08:27:34.539Z,5.60
2023-03-17T08:30:03.238Z,7.33
2023-03-17T08:32:31.812Z,6.13
2023-03-17T08:35:00.537Z,7.23
2023-03-17T08:37:29.013Z,7.97
2023-03-17T08:39:57.908Z,6.90
2023-03-17T08:42:27.709Z,6.70
2023-03-17T08:44:56.131Z,6.97
2023-03-17T08:47:24.970Z,6.50
2023-03-17T08:49:53.436Z,5.70
2023-03-17T08:52:21.825Z,5.00
2023-03-17T08:54:50.392Z,4.87
2023-03-17T08:57:19.715Z,5.47
2023-03-17T08:59:49.886Z,5.03
2023-03-17T09:02:18.452Z,5.50
2023-03-17T09:04:47.161Z,3.50
2023-03-17T09:07:15.614Z,4.77
2023-03-17T09:09:44.081Z,4.20
2023-03-17T09:12:12.573Z,4.17
2023-03-17T09:14:44.299Z,5.77
2023-03-17T09:17:15.519Z,4.13
2023-03-17T09:19:44.791Z,3.60
2023-03-17T09:22:14.731Z,3.20
2023-03-17T09:24:43.270Z,3.07
2023-03-17T09:27:12.022Z,3.17
2023-03-17T09:29:40.488Z,3.00
2023-03-17T09:32:09.581Z,2.80
2023-03-17T09:34:39.325Z,3.27
2023-03-17T09:37:09.911Z,4.70
2023-03-17T09:39:38.458Z,4.23
2023-03-17T09:42:38.731Z,3.73
2023-03-17T09:45:21.181Z,4.70
2023-03-17T09:48:31.454Z,4.30
2023-03-17T09:51:05.714Z,4.97
2023-03-17T09:53:37.758Z,4.40
2023-03-17T09:56:12.408Z,5.97
2023-03-17T09:58:43.767Z,4.43
2023-03-17T10:01:12.915Z,5.05
2023-03-17T10:03:41.548Z,3.72
2023-03-17T10:06:34.879Z,4.35
2023-03-17T10:09:11.657Z,3.63
2023-03-17T10:11:43.499Z,3.53
2023-03-17T10:14:37.842Z,3.30
2023-03-17T10:17:16.695Z,2.30
2023-03-17T10:19:51.635Z,2.60
2023-03-17T10:22:26.186Z,2.33
2023-03-17T10:25:02.409Z,2.50
2023-03-17T10:27:36.406Z,2.17
2023-03-17T10:30:05.748Z,3.10
2023-03-17T10:32:38.388Z,2.78
2023-03-17T10:35:10.844Z,3.88
2023-03-17T10:37:43.894Z,3.78
2023-03-17T10:40:22.946Z,3.28
2023-03-17T10:42:55.052Z,3.78
2023-03-17T10:45:28.772Z,5.85
2023-03-17T10:47:58.779Z,3.20
2023-03-17T10:50:31.545Z,2.83
2023-03-17T10:53:10.927Z,4.10
2023-03-17T10:55:44.821Z,6.25
2023-03-17T10:58:17.094Z,2.92
2023-03-17T11:00:57.386Z,2.38
2023-03-17T11:03:29.447Z,2.20
2023-03-17T11:05:59.194Z,3.92
2023-03-17T11:08:32.879Z,2.35
2023-03-17T11:11:05.017Z,2.80
2023-03-17T11:13:33.294Z,2.95
2023-03-17T11:16:10.718Z,2.65
2023-03-17T11:18:40.921Z,2.42
2023-03-17T11:21:12.201Z,3.03
2023-03-17T11:23:51.166Z,2.05
2023-03-17T11:26:41.756Z,3.28
2023-03-17T11:29:25.924Z,2.58
2023-03-17T11:32:02.118Z,2.88
2023-03-17T11:34:45.003Z,2.47
2023-03-17T11:37:25.117Z,2.47
2023-03-17T11:40:04.135Z,2.22
2023-03-17T11:42:41.841Z,2.25
2023-03-17T11:45:22.544Z,2.22
2023-03-17T11:48:09.901Z,2.10
2023-03-17T11:50:46.938Z,2.38
2023-03-17T11:53:38.260Z,1.92
2023-03-17T11:56:15.328Z,5.95
2023-03-17T11:58:46.158Z,3.05
2023-03-17T12:01:17.116Z,2.28
2023-03-17T12:03:51.089Z,2.38
2023-03-17T12:06:27.145Z,2.83
2023-03-17T12:08:59.849Z,3.45
2023-03-17T12:11:33.230Z,5.85
2023-03-17T12:14:05.975Z,5.45
2023-03-17T12:16:39.917Z,5.50
2023-03-17T12:19:14.770Z,3.35
2023-03-17T12:21:50.413Z,4.35
2023-03-17T12:24:22.720Z,4.35
2023-03-17T12:26:59.005Z,3.50
2023-03-17T12:29:43.194Z,3.05
2023-03-17T12:32:19.856Z,3.33
2023-03-17T12:34:53.324Z,4.15
2023-03-17T12:37:22.941Z,3.70
2023-03-17T12:39:58.794Z,2.42
2023-03-17T12:42:38.948Z,4.03
2023-03-17T12:45:28.902Z,4.03
2023-03-17T12:48:16.752Z,4.60
2023-03-17T12:51:06.849Z,3.00
2023-03-17T12:53:38.067Z,2.20
2023-03-17T12:56:13.876Z,4.50
2023-03-17T12:58:46.639Z,2.90
2023-03-17T13:01:26.555Z,2.35
2023-03-17T13:04:05.069Z,3.65
2023-03-17T13:06:40.606Z,3.28
2023-03-17T13:09:31.595Z,2.47
2023-03-17T13:12:01.252Z,2.17
2023-03-17T13:14:43.115Z,4.38
2023-03-17T13:17:35.088Z,3.05
2023-03-17T13:20:16.339Z,5.35
2023-03-17T13:23:13.261Z,3.53
2023-03-17T13:25:53.629Z,2.13
2023-03-17T13:28:30.794Z,2.47
2023-03-17T13:31:11.540Z,4.05
2023-03-17T13:33:46.690Z,4.95
2023-03-17T13:36:33.624Z,2.22
2023-03-17T13:39:27.707Z,1.90
2023-03-17T13:42:32.295Z,1.50
2023-03-17T13:45:22.762Z,1.80
2023-03-17T13:47:53.652Z,2.75
2023-03-17T13:50:25.599Z,2.17
2023-03-17T13:52:57.977Z,2.05
2023-03-17T13:55:41.307Z,2.22
2023-03-17T13:58:33.252Z,2.22
2023-03-17T14:01:07.390Z,2.88
2023-03-17T14:03:42.049Z,2.40
2023-03-17T14:06:13.553Z,2.28
2023-03-17T14:08:47.210Z,1.65
2023-03-17T14:11:24.289Z,2.88
2023-03-17T14:14:08.755Z,1.83
2023-03-17T14:16:44.643Z,1.83
2023-03-17T14:19:22.091Z,1.55
2023-03-17T14:21:50.697Z,2.00
2023-03-17T14:24:25.204Z,1.90
2023-03-17T14:26:54.339Z,2.38
2023-03-17T14:29:28.072Z,1.73
2023-03-17T14:32:05.288Z,1.50
2023-03-17T14:34:35.676Z,1.50
2023-03-17T14:37:05.761Z,2.88
2023-03-17T14:39:34.068Z,1.60
2023-03-17T14:42:04.471Z,2.78
2023-03-17T14:44:40.506Z,1.63
2023-03-17T14:47:17.532Z,4.95
2023-03-17T14:49:47.866Z,5.20
2023-03-17T14:52:21.394Z,4.68
2023-03-17T14:54:53.861Z,3.72
2023-03-17T14:57:24.739Z,1.60
2023-03-17T15:00:00.891Z,1.23
2023-03-17T15:02:34.639Z,2.17
2023-03-17T15:05:12.715Z,2.35
2023-03-17T15:07:43.336Z,1.30
2023-03-17T15:10:17.642Z,1.40
2023-03-17T15:12:47.487Z,2.90
2023-03-17T15:15:23.951Z,1.58
2023-03-17T15:17:53.492Z,1.77
2023-03-17T15:20:23.950Z,1.38
2023-03-17T15:22:59.314Z,2.28
2023-03-17T15:25:35.166Z,1.20
2023-03-17T15:28:03.566Z,2.03
2023-03-17T15:30:45.941Z,1.73
2023-03-17T15:33:22.332Z,2.30
2023-03-17T15:35:52.559Z,1.42
2023-03-17T15:38:21.636Z,2.15
2023-03-17T15:40:50.646Z,2.92
2023-03-17T15:43:21.658Z,3.42
2023-03-17T15:45:55.508Z,1.88
2023-03-17T15:48:25.411Z,2.08
2023-03-17T15:50:56.775Z,2.78
2023-03-17T15:53:28.174Z,3.35
2023-03-17T15:55:56.487Z,3.75
2023-03-17T15:58:24.825Z,3.40
2023-03-17T16:00:57.367Z,2.35
2023-03-17T16:03:30.256Z,2.95
2023-03-17T16:06:00.552Z,2.58
2023-03-17T16:08:28.958Z,3.53
2023-03-17T16:10:57.334Z,2.92
2023-03-17T16:13:25.830Z,2.72
2023-03-17T16:15:57.329Z,3.42
2023-03-17T16:18:32.795Z,2.58
2023-03-17T16:21:04.071Z,2.92
2023-03-17T16:23:37.005Z,3.78
2023-03-17T16:26:14.938Z,7.38
2023-03-17T16:28:45.968Z,5.63
2023-03-17T16:31:20.797Z,4.93
2023-03-17T16:33:50.286Z,4.78
2023-03-17T16:36:21.543Z,2.90
2023-03-17T16:38:51.006Z,4.90
2023-03-17T16:41:22.208Z,4.80
2023-03-17T16:43:53.670Z,2.90
2023-03-17T16:46:22.925Z,2.72
2023-03-17T16:48:51.705Z,3.45
2023-03-17T16:51:21.511Z,3.38
2023-03-17T16:53:49.915Z,4.00
2023-03-17T16:56:20.666Z,4.20
2023-03-17T16:58:49.565Z,2.83
2023-03-17T17:01:21.810Z,4.05
2023-03-17T17:03:50.699Z,25.13
2023-03-17T17:06:22.664Z,17.98
2023-03-17T17:08:52.206Z,19.35
2023-03-17T17:11:21.358Z,21.83
2023-03-17T17:13:51.891Z,44.50
2023-03-17T17:16:24.519Z,72.75
2023-03-17T17:18:52.978Z,65.05
2023-03-17T17:21:22.958Z,42.80
2023-03-17T17:23:53.020Z,26.60
2023-03-17T17:26:22.145Z,39.20
2023-03-17T17:28:50.795Z,63.47
2023-03-17T17:31:19.387Z,61.70
2023-03-17T17:33:47.753Z,69.07
2023-03-17T17:36:18.044Z,74.65
2023-03-17T17:38:47.774Z,120.85
2023-03-17T17:41:17.138Z,298.25
2023-03-17T17:43:46.341Z,270.33
2023-03-17T17:46:18.265Z,161.45
2023-03-17T17:48:47.156Z,87.82
2023-03-17T17:51:16.008Z,46.30
2023-03-17T17:53:44.672Z,32.42
2023-03-17T17:56:16.878Z,26.05
2023-03-17T17:58:45.593Z,21.75
2023-03-17T18:01:17.043Z,21.17
2023-03-17T18:03:45.411Z,26.75
2023-03-17T18:06:14.198Z,36.60
2023-03-17T18:08:43.594Z,76.80
2023-03-17T18:11:12.308Z,77.57
2023-03-17T18:13:42.231Z,54.50
2023-03-17T18:16:12.475Z,60.78
2023-03-17T18:18:42.446Z,70.07
2023-03-17T18:21:10.978Z,52.15
2023-03-17T18:23:39.304Z,39.25
2023-03-17T18:26:07.705Z,34.08
2023-03-17T18:28:36.095Z,39.20
2023-03-17T18:31:10.677Z,44.55
2023-03-17T18:33:40.147Z,41.20
2023-03-17T18:36:09.879Z,33.25
2023-03-17T18:38:38.680Z,24.83
2023-03-17T18:41:11.135Z,19.55
2023-03-17T18:43:41.086Z,17.67
2023-03-17T18:46:10.959Z,17.52
2023-03-17T18:48:39.561Z,22.60
2023-03-17T18:51:08.142Z,31.63
2023-03-17T18:53:38.264Z,37.83
2023-03-17T18:56:07.520Z,37.08
2023-03-17T18:58:36.349Z,37.50
2023-03-17T19:01:05.723Z,47.03
2023-03-17T19:03:36.264Z,53.47
2023-03-17T19:06:13.470Z,46.75
2023-03-17T19:08:42.226Z,47.03
2023-03-17T19:11:12.253Z,45.67
2023-03-17T19:13:40.582Z,71.90
2023-03-17T19:16:10.625Z,69.55
2023-03-17T19:18:42.236Z,54.42
2023-03-17T19:21:11.707Z,47.33
2023-03-17T19:23:41.706Z,40.80
2023-03-17T19:26:10.656Z,34.78
2023-03-17T19:28:39.027Z,35.35
2023-03-17T19:31:07.851Z,33.00
2023-03-17T19:33:36.616Z,36.50
2023-03-17T19:36:11.063Z,32.97
2023-03-17T19:38:39.534Z,26.43
2023-03-17T19:41:08.217Z,18.10
2023-03-17T19:43:41.159Z,20.50
2023-03-17T19:46:11.161Z,23.87
2023-03-17T19:48:40.025Z,18.23
2023-03-17T19:51:09.733Z,13.13
2023-03-17T19:53:38.562Z,11.38
2023-03-17T19:56:07.648Z,11.53
2023-03-17T19:58:36.054Z,14.13
2023-03-17T20:01:05.119Z,12.07
2023-03-17T20:03:33.851Z,10.77
2023-03-17T20:06:06.187Z,8.70
2023-03-17T20:08:36.342Z,8.47
2023-03-17T20:11:06.078Z,8.53
2023-03-17T20:13:35.536Z,8.80
2023-03-17T20:16:04.797Z,10.43
2023-03-17T20:18:33.321Z,8.87
2023-03-17T20:21:05.585Z,7.63
2023-03-17T20:23:36.724Z,9.00
2023-03-17T20:26:05.365Z,10.70
2023-03-17T20:28:33.726Z,9.83
2023-03-17T20:31:03.093Z,9.60
2023-03-17T20:33:31.870Z,11.60
2023-03-17T20:36:00.457Z,12.60
2023-03-17T20:38:29.207Z,12.27
2023-03-17T20:41:09.000Z,9.90
2023-03-17T20:43:38.425Z,8.57
2023-03-17T20:46:08.810Z,8.40
2023-03-17T20:48:37.799Z,10.63
2023-03-17T20:51:06.756Z,10.13
2023-03-17T20:53:37.746Z,10.07
2023-03-17T20:56:08.627Z,8.90
2023-03-17T20:58:37.100Z,8.30
2023-03-17T21:01:05.711Z,10.20
2023-03-17T21:03:34.042Z,8.57
2023-03-17T21:06:02.388Z,8.07
2023-03-17T21:08:30.708Z,6.97
2023-03-17T21:10:59.015Z,6.23
2023-03-17T21:13:28.829Z,7.70
2023-03-17T21:15:57.410Z,7.40
2023-03-17T21:18:26.019Z,8.20
2023-03-17T21:20:54.639Z,8.53
2023-03-17T21:23:23.410Z,8.63
2023-03-17T21:25:56.770Z,9.07
2023-03-17T21:28:25.506Z,7.70
2023-03-17T21:30:55.275Z,9.40
2023-03-17T21:33:23.676Z,8.67
2023-03-17T21:35:52.261Z,7.47
2023-03-17T21:38:20.590Z,6.67
2023-03-17T21:40:48.897Z,5.53
2023-03-17T21:43:17.383Z,5.30
2023-03-17T21:45:46.093Z,5.80
2023-03-17T21:48:16.059Z,7.17
2023-03-17T21:50:44.604Z,6.77
2023-03-17T21:53:15.946Z,6.03
2023-03-17T21:55:44.323Z,5.57
2023-03-17T21:58:12.636Z,6.03
2023-03-17T22:00:45.560Z,5.37
2023-03-17T22:03:15.782Z,5.23
2023-03-17T22:05:44.111Z,4.77
2023-03-17T22:08:12.425Z,4.77
2023-03-17T22:10:41.350Z,5.07
2023-03-17T22:13:09.727Z,5.57
2023-03-17T22:15:38.858Z,5.90
2023-03-17T22:18:07.439Z,4.97
2023-03-17T22:20:37.739Z,4.23
2023-03-17T22:23:06.296Z,4.77
2023-03-17T22:25:34.719Z,5.07
2023-03-17T22:28:03.254Z,4.70
2023-03-17T22:30:31.976Z,3.90
2023-03-17T22:33:01.181Z,4.83
2023-03-17T22:35:29.652Z,4.80
2023-03-17T22:37:59.526Z,5.03
2023-03-17T22:40:28.211Z,5.33
2023-03-17T22:42:57.614Z,6.43
2023-03-17T22:45:26.838Z,6.63
2023-03-17T22:47:56.160Z,6.00
2023-03-17T22:50:26.336Z,5.07
2023-03-17T22:52:54.689Z,5.83
2023-03-17T22:55:24.530Z,5.23
2023-03-17T22:57:53.056Z,4.43
2023-03-17T23:00:23.021Z,4.43
2023-03-17T23:02:51.706Z,4.60
2023-03-17T23:05:20.506Z,4.50
2023-03-17T23:07:50.936Z,4.20
2023-03-17T23:10:23.182Z,4.40
2023-03-17T23:12:54.600Z,3.53
2023-03-17T23:15:23.229Z,3.90
2023-03-17T23:17:52.110Z,4.07
2023-03-17T23:20:20.635Z,4.60
2023-03-17T23:22:49.114Z,3.30
2023-03-17T23:25:17.974Z,3.60
2023-03-17T23:27:46.940Z,3.57
2023-03-17T23:30:18.014Z,3.87
2023-03-17T23:32:46.895Z,3.93
2023-03-17T23:35:15.639Z,4.63
2023-03-17T23:37:44.050Z,3.63
2023-03-17T23:40:15.751Z,4.77
2023-03-17T23:42:44.751Z,4.33
2023-03-17T23:45:15.454Z,3.37
2023-03-17T23:47:46.039Z,3.53
2023-03-17T23:50:16.373Z,3.20
2023-03-17T23:52:45.112Z,3.57
2023-03-17T23:55:14.053Z,4.67
2023-03-17T23:57:44.254Z,3.50
